sensor_id;sensor_type;location;lat;lon;timestamp;P1;durP1;ratioP1;P2;durP2;ratioP2
78324;SDS011;67584;51.400;6.692;2023-08-24T00:02:00;7.55;;;5.90;;
78324;SDS011;67584;51.400;6.692;2023-08-24T00:04:27;8.15;;;5.45;;
78324;SDS011;67584;51.400;6.692;2023-08-24T00:06:53;9.10;;;5.32;;
78324;SDS011;67584;51.400;6.692;2023-08-24T00:09:19;6.57;;;5.72;;
78324;SDS011;67584;51.400;6.692;2023-08-24T00:11:45;11.82;;;6.25;;
78324;SDS011;67584;51.400;6.692;2023-08-24T00:14:11;7.85;;;5.13;;
78324;SDS011;67584;51.400;6.692;2023-08-24T00:16:37;8.32;;;5.00;;
78324;SDS011;67584;51.400;6.692;2023-08-24T00:19:04;12.85;;;5.55;;
78324;SDS011;67584;51.400;6.692;2023-08-24T00:21:30;6.78;;;4.78;;
78324;SDS011;67584;51.400;6.692;2023-08-24T00:23:56;6.72;;;5.22;;
78324;SDS011;67584;51.400;6.692;2023-08-24T00:26:21;7.50;;;5.10;;
78324;SDS011;67584;51.400;6.692;2023-08-24T00:28:48;7.15;;;4.68;;
78324;SDS011;67584;51.400;6.692;2023-08-24T00:31:17;7.40;;;4.80;;
78324;SDS011;67584;51.400;6.692;2023-08-24T00:33:43;7.10;;;4.93;;
78324;SDS011;67584;51.400;6.692;2023-08-24T00:36:09;6.93;;;4.88;;
78324;SDS011;67584;51.400;6.692;2023-08-24T00:38:34;6.40;;;5.00;;
78324;SDS011;67584;51.400;6.692;2023-08-24T00:41:00;8.40;;;5.07;;
78324;SDS011;67584;51.400;6.692;2023-08-24T00:43:26;8.32;;;5.40;;
78324;SDS011;67584;51.400;6.692;2023-08-24T00:45:56;7.07;;;5.07;;
78324;SDS011;67584;51.400;6.692;2023-08-24T00:48:24;8.88;;;5.63;;
78324;SDS011;67584;51.400;6.692;2023-08-24T00:50:54;8.23;;;4.95;;
78324;SDS011;67584;51.400;6.692;2023-08-24T00:53:20;8.98;;;5.63;;
78324;SDS011;67584;51.400;6.692;2023-08-24T00:55:50;8.13;;;5.78;;
78324;SDS011;67584;51.400;6.692;2023-08-24T00:58:16;6.88;;;5.32;;
78324;SDS011;67584;51.400;6.692;2023-08-24T01:00:45;7.53;;;5.13;;
78324;SDS011;67584;51.400;6.692;2023-08-24T01:03:11;7.00;;;5.53;;
78324;SDS011;67584;51.400;6.692;2023-08-24T01:05:37;12.00;;;6.10;;
78324;SDS011;67584;51.400;6.692;2023-08-24T01:08:03;8.55;;;6.53;;
78324;SDS011;67584;51.400;6.692;2023-08-24T01:10:30;9.23;;;5.35;;
78324;SDS011;67584;51.400;6.692;2023-08-24T01:13:25;9.75;;;6.28;;
78324;SDS011;67584;51.400;6.692;2023-08-24T01:16:01;8.02;;;6.38;;
78324;SDS011;67584;51.400;6.692;2023-08-24T01:18:33;6.78;;;5.80;;
78324;SDS011;67584;51.400;6.692;2023-08-24T01:21:01;8.82;;;5.85;;
78324;SDS011;67584;51.400;6.692;2023-08-24T01:26:10;19.52;;;7.70;;
78324;SDS011;67584;51.400;6.692;2023-08-24T01:28:42;8.02;;;6.18;;
78324;SDS011;67584;51.400;6.692;2023-08-24T01:31:09;10.73;;;6.93;;
78324;SDS011;67584;51.400;6.692;2023-08-24T01:33:35;8.25;;;5.70;;
78324;SDS011;67584;51.400;6.692;2023-08-24T01:36:01;8.60;;;5.97;;
78324;SDS011;67584;51.400;6.692;2023-08-24T01:38:27;8.57;;;6.78;;
78324;SDS011;67584;51.400;6.692;2023-08-24T01:40:55;10.02;;;6.93;;
78324;SDS011;67584;51.400;6.692;2023-08-24T01:43:33;6.85;;;6.03;;
78324;SDS011;67584;51.400;6.692;2023-08-24T01:46:05;12.02;;;6.40;;
78324;SDS011;67584;51.400;6.692;2023-08-24T01:48:32;10.88;;;5.80;;
78324;SDS011;67584;51.400;6.692;2023-08-24T01:50:58;9.77;;;6.40;;
78324;SDS011;67584;51.400;6.692;2023-08-24T01:53:26;6.75;;;5.93;;
78324;SDS011;67584;51.400;6.692;2023-08-24T01:55:52;8.35;;;6.35;;
78324;SDS011;67584;51.400;6.692;2023-08-24T01:58:18;8.15;;;6.00;;
78324;SDS011;67584;51.400;6.692;2023-08-24T02:00:45;9.07;;;6.93;;
78324;SDS011;67584;51.400;6.692;2023-08-24T02:03:10;7.80;;;6.50;;
78324;SDS011;67584;51.400;6.692;2023-08-24T02:05:36;9.00;;;6.68;;
78324;SDS011;67584;51.400;6.692;2023-08-24T02:08:02;9.07;;;6.15;;
78324;SDS011;67584;51.400;6.692;2023-08-24T02:10:28;8.40;;;5.57;;
78324;SDS011;67584;51.400;6.692;2023-08-24T02:12:54;8.68;;;5.90;;
78324;SDS011;67584;51.400;6.692;2023-08-24T02:15:20;8.55;;;6.07;;
78324;SDS011;67584;51.400;6.692;2023-08-24T02:17:46;6.70;;;5.13;;
78324;SDS011;67584;51.400;6.692;2023-08-24T02:20:11;7.55;;;6.05;;
78324;SDS011;67584;51.400;6.692;2023-08-24T02:22:37;9.20;;;7.10;;
78324;SDS011;67584;51.400;6.692;2023-08-24T02:25:04;7.00;;;6.07;;
78324;SDS011;67584;51.400;6.692;2023-08-24T02:27:31;9.55;;;7.47;;
78324;SDS011;67584;51.400;6.692;2023-08-24T02:29:57;8.80;;;6.22;;
78324;SDS011;67584;51.400;6.692;2023-08-24T02:32:23;9.98;;;7.18;;
78324;SDS011;67584;51.400;6.692;2023-08-24T02:34:49;10.20;;;6.70;;
78324;SDS011;67584;51.400;6.692;2023-08-24T02:37:14;9.50;;;7.07;;
78324;SDS011;67584;51.400;6.692;2023-08-24T02:39:41;11.80;;;6.53;;
78324;SDS011;67584;51.400;6.692;2023-08-24T02:42:06;11.05;;;6.35;;
78324;SDS011;67584;51.400;6.692;2023-08-24T02:44:32;8.77;;;6.80;;
78324;SDS011;67584;51.400;6.692;2023-08-24T02:46:58;8.98;;;7.47;;
78324;SDS011;67584;51.400;6.692;2023-08-24T02:49:24;10.15;;;7.40;;
78324;SDS011;67584;51.400;6.692;2023-08-24T02:51:50;9.95;;;6.97;;
78324;SDS011;67584;51.400;6.692;2023-08-24T02:54:15;12.10;;;7.20;;
78324;SDS011;67584;51.400;6.692;2023-08-24T02:56:41;7.90;;;6.57;;
78324;SDS011;67584;51.400;6.692;2023-08-24T02:59:07;8.32;;;6.15;;
78324;SDS011;67584;51.400;6.692;2023-08-24T03:01:32;8.27;;;7.00;;
78324;SDS011;67584;51.400;6.692;2023-08-24T03:03:59;7.70;;;6.18;;
78324;SDS011;67584;51.400;6.692;2023-08-24T03:06:25;8.13;;;6.80;;
78324;SDS011;67584;51.400;6.692;2023-08-24T03:08:51;9.15;;;7.50;;
78324;SDS011;67584;51.400;6.692;2023-08-24T03:11:16;8.25;;;6.82;;
78324;SDS011;67584;51.400;6.692;2023-08-24T03:13:43;6.75;;;5.82;;
78324;SDS011;67584;51.400;6.692;2023-08-24T03:16:08;8.48;;;6.85;;
78324;SDS011;67584;51.400;6.692;2023-08-24T03:18:35;8.13;;;7.13;;
78324;SDS011;67584;51.400;6.692;2023-08-24T03:21:03;10.40;;;7.25;;
78324;SDS011;67584;51.400;6.692;2023-08-24T03:23:31;7.22;;;6.35;;
78324;SDS011;67584;51.400;6.692;2023-08-24T03:25:57;7.55;;;6.00;;
78324;SDS011;67584;51.400;6.692;2023-08-24T03:28:24;7.80;;;6.28;;
78324;SDS011;67584;51.400;6.692;2023-08-24T03:30:50;7.32;;;6.38;;
78324;SDS011;67584;51.400;6.692;2023-08-24T03:33:17;8.13;;;5.82;;
78324;SDS011;67584;51.400;6.692;2023-08-24T03:35:44;8.40;;;6.82;;
78324;SDS011;67584;51.400;6.692;2023-08-24T03:38:10;9.48;;;5.90;;
78324;SDS011;67584;51.400;6.692;2023-08-24T03:40:36;7.82;;;6.45;;
78324;SDS011;67584;51.400;6.692;2023-08-24T03:43:03;10.40;;;7.03;;
78324;SDS011;67584;51.400;6.692;2023-08-24T03:45:29;8.38;;;5.80;;
78324;SDS011;67584;51.400;6.692;2023-08-24T03:47:55;9.07;;;5.85;;
78324;SDS011;67584;51.400;6.692;2023-08-24T03:50:20;9.43;;;6.72;;
78324;SDS011;67584;51.400;6.692;2023-08-24T03:52:48;6.88;;;5.45;;
78324;SDS011;67584;51.400;6.692;2023-08-24T03:55:15;9.20;;;7.00;;
78324;SDS011;67584;51.400;6.692;2023-08-24T03:57:42;9.95;;;6.45;;
78324;SDS011;67584;51.400;6.692;2023-08-24T04:00:08;7.50;;;5.60;;
78324;SDS011;67584;51.400;6.692;2023-08-24T04:02:42;6.43;;;5.70;;
78324;SDS011;67584;51.400;6.692;2023-08-24T04:05:12;7.13;;;5.13;;
78324;SDS011;67584;51.400;6.692;2023-08-24T04:07:37;7.80;;;5.72;;
78324;SDS011;67584;51.400;6.692;2023-08-24T04:10:05;7.65;;;6.10;;
78324;SDS011;67584;51.400;6.692;2023-08-24T04:12:31;7.10;;;5.80;;
78324;SDS011;67584;51.400;6.692;2023-08-24T04:14:57;11.10;;;6.20;;
78324;SDS011;67584;51.400;6.692;2023-08-24T04:17:24;7.20;;;5.75;;
78324;SDS011;67584;51.400;6.692;2023-08-24T04:19:50;8.40;;;6.35;;
78324;SDS011;67584;51.400;6.692;2023-08-24T04:22:16;8.48;;;6.22;;
78324;SDS011;67584;51.400;6.692;2023-08-24T04:24:41;9.60;;;6.15;;
78324;SDS011;67584;51.400;6.692;2023-08-24T04:27:07;6.75;;;6.05;;
78324;SDS011;67584;51.400;6.692;2023-08-24T04:29:33;7.95;;;6.30;;
78324;SDS011;67584;51.400;6.692;2023-08-24T04:31:58;7.95;;;6.07;;
78324;SDS011;67584;51.400;6.692;2023-08-24T04:34:24;7.88;;;6.40;;
78324;SDS011;67584;51.400;6.692;2023-08-24T04:36:50;9.88;;;6.30;;
78324;SDS011;67584;51.400;6.692;2023-08-24T04:39:15;8.52;;;6.18;;
78324;SDS011;67584;51.400;6.692;2023-08-24T04:41:43;10.30;;;6.53;;
78324;SDS011;67584;51.400;6.692;2023-08-24T04:44:09;7.95;;;6.28;;
78324;SDS011;67584;51.400;6.692;2023-08-24T04:46:35;7.97;;;5.85;;
78324;SDS011;67584;51.400;6.692;2023-08-24T04:49:01;7.78;;;6.10;;
78324;SDS011;67584;51.400;6.692;2023-08-24T04:51:27;7.70;;;6.53;;
78324;SDS011;67584;51.400;6.692;2023-08-24T04:53:54;11.02;;;6.68;;
78324;SDS011;67584;51.400;6.692;2023-08-24T04:56:19;7.70;;;5.65;;
78324;SDS011;67584;51.400;6.692;2023-08-24T04:58:52;8.45;;;6.10;;
78324;SDS011;67584;51.400;6.692;2023-08-24T05:01:22;9.40;;;6.90;;
78324;SDS011;67584;51.400;6.692;2023-08-24T05:03:50;8.18;;;6.50;;
78324;SDS011;67584;51.400;6.692;2023-08-24T05:06:17;7.28;;;5.72;;
78324;SDS011;67584;51.400;6.692;2023-08-24T05:08:42;10.88;;;6.43;;
78324;SDS011;67584;51.400;6.692;2023-08-24T05:11:17;11.15;;;6.25;;
78324;SDS011;67584;51.400;6.692;2023-08-24T05:13:44;7.50;;;5.28;;
78324;SDS011;67584;51.400;6.692;2023-08-24T05:16:10;8.50;;;6.03;;
78324;SDS011;67584;51.400;6.692;2023-08-24T05:18:36;8.90;;;5.95;;
78324;SDS011;67584;51.400;6.692;2023-08-24T05:21:03;6.50;;;5.30;;
78324;SDS011;67584;51.400;6.692;2023-08-24T05:23:29;7.75;;;5.82;;
78324;SDS011;67584;51.400;6.692;2023-08-24T05:25:56;7.30;;;5.13;;
78324;SDS011;67584;51.400;6.692;2023-08-24T05:28:22;9.55;;;6.43;;
78324;SDS011;67584;51.400;6.692;2023-08-24T05:30:50;13.00;;;8.02;;
78324;SDS011;67584;51.400;6.692;2023-08-24T05:33:20;10.07;;;7.55;;
78324;SDS011;67584;51.400;6.692;2023-08-24T05:35:47;9.05;;;7.25;;
78324;SDS011;67584;51.400;6.692;2023-08-24T05:38:13;10.85;;;6.78;;
78324;SDS011;67584;51.400;6.692;2023-08-24T05:40:40;11.70;;;8.05;;
78324;SDS011;67584;51.400;6.692;2023-08-24T05:43:07;14.48;;;9.52;;
78324;SDS011;67584;51.400;6.692;2023-08-24T05:45:33;16.42;;;10.50;;
78324;SDS011;67584;51.400;6.692;2023-08-24T05:47:59;16.58;;;9.63;;
78324;SDS011;67584;51.400;6.692;2023-08-24T05:50:25;15.68;;;9.60;;
78324;SDS011;67584;51.400;6.692;2023-08-24T05:52:50;16.15;;;10.63;;
78324;SDS011;67584;51.400;6.692;2023-08-24T05:55:17;12.75;;;8.57;;
78324;SDS011;67584;51.400;6.692;2023-08-24T05:57:43;13.60;;;8.38;;
78324;SDS011;67584;51.400;6.692;2023-08-24T06:00:12;12.93;;;9.32;;
78324;SDS011;67584;51.400;6.692;2023-08-24T06:02:41;14.93;;;9.75;;
78324;SDS011;67584;51.400;6.692;2023-08-24T06:05:07;12.70;;;9.27;;
78324;SDS011;67584;51.400;6.692;2023-08-24T06:07:34;12.90;;;8.70;;
78324;SDS011;67584;51.400;6.692;2023-08-24T06:10:00;10.90;;;8.93;;
78324;SDS011;67584;51.400;6.692;2023-08-24T06:12:25;13.52;;;8.60;;
78324;SDS011;67584;51.400;6.692;2023-08-24T06:14:51;16.27;;;9.00;;
78324;SDS011;67584;51.400;6.692;2023-08-24T06:17:17;13.38;;;8.77;;
78324;SDS011;67584;51.400;6.692;2023-08-24T06:19:43;12.13;;;9.13;;
78324;SDS011;67584;51.400;6.692;2023-08-24T06:22:08;16.00;;;9.05;;
78324;SDS011;67584;51.400;6.692;2023-08-24T06:24:34;14.20;;;8.15;;
78324;SDS011;67584;51.400;6.692;2023-08-24T06:27:00;9.13;;;7.60;;
78324;SDS011;67584;51.400;6.692;2023-08-24T06:29:27;8.10;;;7.05;;
78324;SDS011;67584;51.400;6.692;2023-08-24T06:31:55;11.25;;;7.22;;
78324;SDS011;67584;51.400;6.692;2023-08-24T06:34:21;12.27;;;7.45;;
78324;SDS011;67584;51.400;6.692;2023-08-24T06:36:47;9.65;;;6.95;;
78324;SDS011;67584;51.400;6.692;2023-08-24T06:39:15;9.50;;;6.80;;
78324;SDS011;67584;51.400;6.692;2023-08-24T06:41:41;7.95;;;6.50;;
78324;SDS011;67584;51.400;6.692;2023-08-24T06:44:07;9.82;;;6.05;;
78324;SDS011;67584;51.400;6.692;2023-08-24T06:46:33;9.45;;;6.03;;
78324;SDS011;67584;51.400;6.692;2023-08-24T06:48:59;9.77;;;6.35;;
78324;SDS011;67584;51.400;6.692;2023-08-24T06:51:25;13.02;;;6.78;;
78324;SDS011;67584;51.400;6.692;2023-08-24T06:53:51;9.05;;;6.28;;
78324;SDS011;67584;51.400;6.692;2023-08-24T06:56:17;7.15;;;6.28;;
78324;SDS011;67584;51.400;6.692;2023-08-24T06:58:43;8.68;;;5.75;;
78324;SDS011;67584;51.400;6.692;2023-08-24T07:01:10;6.20;;;5.60;;
78324;SDS011;67584;51.400;6.692;2023-08-24T07:03:36;7.65;;;5.78;;
78324;SDS011;67584;51.400;6.692;2023-08-24T07:06:02;8.60;;;5.40;;
78324;SDS011;67584;51.400;6.692;2023-08-24T07:08:30;7.40;;;5.72;;
78324;SDS011;67584;51.400;6.692;2023-08-24T07:10:55;5.95;;;5.05;;
78324;SDS011;67584;51.400;6.692;2023-08-24T07:13:21;5.78;;;5.00;;
78324;SDS011;67584;51.400;6.692;2023-08-24T07:15:47;5.53;;;4.43;;
78324;SDS011;67584;51.400;6.692;2023-08-24T07:18:12;8.00;;;5.93;;
78324;SDS011;67584;51.400;6.692;2023-08-24T07:20:38;8.18;;;4.93;;
78324;SDS011;67584;51.400;6.692;2023-08-24T07:23:04;6.82;;;4.90;;
78324;SDS011;67584;51.400;6.692;2023-08-24T07:25:29;6.10;;;5.50;;
78324;SDS011;67584;51.400;6.692;2023-08-24T07:27:55;6.68;;;5.60;;
78324;SDS011;67584;51.400;6.692;2023-08-24T07:35:15;7.07;;;4.43;;
78324;SDS011;67584;51.400;6.692;2023-08-24T07:37:41;6.95;;;5.22;;
78324;SDS011;67584;51.400;6.692;2023-08-24T07:40:07;6.20;;;4.38;;
78324;SDS011;67584;51.400;6.692;2023-08-24T07:42:42;4.97;;;4.38;;
78324;SDS011;67584;51.400;6.692;2023-08-24T07:45:12;7.05;;;4.45;;
78324;SDS011;67584;51.400;6.692;2023-08-24T07:47:39;9.55;;;5.18;;
78324;SDS011;67584;51.400;6.692;2023-08-24T07:50:05;5.68;;;4.50;;
78324;SDS011;67584;51.400;6.692;2023-08-24T07:52:32;5.72;;;4.32;;
78324;SDS011;67584;51.400;6.692;2023-08-24T07:54:58;5.38;;;4.03;;
78324;SDS011;67584;51.400;6.692;2023-08-24T07:57:25;6.20;;;4.32;;
78324;SDS011;67584;51.400;6.692;2023-08-24T07:59:51;8.90;;;4.93;;
78324;SDS011;67584;51.400;6.692;2023-08-24T08:02:17;8.40;;;4.75;;
78324;SDS011;67584;51.400;6.692;2023-08-24T08:04:43;7.32;;;5.63;;
78324;SDS011;67584;51.400;6.692;2023-08-24T08:07:09;8.63;;;4.70;;
78324;SDS011;67584;51.400;6.692;2023-08-24T08:09:36;8.15;;;4.82;;
78324;SDS011;67584;51.400;6.692;2023-08-24T08:12:02;15.68;;;8.27;;
78324;SDS011;67584;51.400;6.692;2023-08-24T08:14:29;8.00;;;5.53;;
78324;SDS011;67584;51.400;6.692;2023-08-24T08:16:54;7.35;;;6.15;;
78324;SDS011;67584;51.400;6.692;2023-08-24T08:19:21;8.13;;;6.13;;
78324;SDS011;67584;51.400;6.692;2023-08-24T08:21:47;8.43;;;5.70;;
78324;SDS011;67584;51.400;6.692;2023-08-24T08:24:14;9.55;;;5.45;;
78324;SDS011;67584;51.400;6.692;2023-08-24T08:26:40;10.52;;;5.70;;
78324;SDS011;67584;51.400;6.692;2023-08-24T08:29:05;7.50;;;4.80;;
78324;SDS011;67584;51.400;6.692;2023-08-24T08:31:31;7.82;;;4.40;;
78324;SDS011;67584;51.400;6.692;2023-08-24T08:33:57;7.70;;;4.93;;
78324;SDS011;67584;51.400;6.692;2023-08-24T08:36:22;5.82;;;4.10;;
78324;SDS011;67584;51.400;6.692;2023-08-24T08:38:48;5.70;;;4.03;;
78324;SDS011;67584;51.400;6.692;2023-08-24T08:41:14;8.77;;;5.55;;
78324;SDS011;67584;51.400;6.692;2023-08-24T08:43:42;8.93;;;4.80;;
78324;SDS011;67584;51.400;6.692;2023-08-24T08:46:07;6.97;;;4.90;;
78324;SDS011;67584;51.400;6.692;2023-08-24T08:48:33;6.70;;;4.60;;
78324;SDS011;67584;51.400;6.692;2023-08-24T08:51:00;7.45;;;4.50;;
78324;SDS011;67584;51.400;6.692;2023-08-24T08:53:27;7.82;;;4.35;;
78324;SDS011;67584;51.400;6.692;2023-08-24T08:55:53;5.00;;;4.05;;
78324;SDS011;67584;51.400;6.692;2023-08-24T08:58:20;8.50;;;4.45;;
78324;SDS011;67584;51.400;6.692;2023-08-24T09:00:47;5.65;;;3.58;;
78324;SDS011;67584;51.400;6.692;2023-08-24T09:03:16;5.30;;;4.25;;
78324;SDS011;67584;51.400;6.692;2023-08-24T09:05:44;7.47;;;4.13;;
78324;SDS011;67584;51.400;6.692;2023-08-24T09:08:13;4.85;;;3.63;;
78324;SDS011;67584;51.400;6.692;2023-08-24T09:10:41;8.93;;;4.43;;
78324;SDS011;67584;51.400;6.692;2023-08-24T09:13:07;4.90;;;3.75;;
78324;SDS011;67584;51.400;6.692;2023-08-24T09:15:36;4.88;;;3.75;;
78324;SDS011;67584;51.400;6.692;2023-08-24T09:18:02;6.45;;;4.28;;
78324;SDS011;67584;51.400;6.692;2023-08-24T09:20:28;4.95;;;4.05;;
78324;SDS011;67584;51.400;6.692;2023-08-24T09:22:55;6.13;;;4.10;;
78324;SDS011;67584;51.400;6.692;2023-08-24T09:25:22;4.20;;;3.53;;
78324;SDS011;67584;51.400;6.692;2023-08-24T09:28:01;8.85;;;3.45;;
78324;SDS011;67584;51.400;6.692;2023-08-24T09:30:34;4.63;;;4.15;;
78324;SDS011;67584;51.400;6.692;2023-08-24T09:33:03;3.92;;;3.58;;
78324;SDS011;67584;51.400;6.692;2023-08-24T09:35:34;5.15;;;3.88;;
78324;SDS011;67584;51.400;6.692;2023-08-24T09:38:19;4.65;;;3.67;;
78324;SDS011;67584;51.400;6.692;2023-08-24T09:40:46;4.32;;;3.92;;
78324;SDS011;67584;51.400;6.692;2023-08-24T09:43:13;5.05;;;4.20;;
78324;SDS011;67584;51.400;6.692;2023-08-24T09:45:47;5.32;;;3.80;;
78324;SDS011;67584;51.400;6.692;2023-08-24T09:48:20;4.72;;;4.10;;
78324;SDS011;67584;51.400;6.692;2023-08-24T09:50:48;4.32;;;3.92;;
78324;SDS011;67584;51.400;6.692;2023-08-24T09:53:19;5.80;;;3.60;;
78324;SDS011;67584;51.400;6.692;2023-08-24T09:55:55;4.63;;;3.80;;
78324;SDS011;67584;51.400;6.692;2023-08-24T09:58:24;5.53;;;3.78;;
78324;SDS011;67584;51.400;6.692;2023-08-24T10:00:51;3.97;;;3.63;;
78324;SDS011;67584;51.400;6.692;2023-08-24T10:03:18;4.20;;;3.42;;
78324;SDS011;67584;51.400;6.692;2023-08-24T10:05:55;4.45;;;3.15;;
78324;SDS011;67584;51.400;6.692;2023-08-24T10:08:27;4.20;;;3.72;;
78324;SDS011;67584;51.400;6.692;2023-08-24T10:10:55;4.25;;;3.85;;
78324;SDS011;67584;51.400;6.692;2023-08-24T10:13:31;4.82;;;3.67;;
78324;SDS011;67584;51.400;6.692;2023-08-24T10:16:26;5.07;;;3.95;;
78324;SDS011;67584;51.400;6.692;2023-08-24T10:18:53;4.40;;;4.00;;
78324;SDS011;67584;51.400;6.692;2023-08-24T10:21:20;4.03;;;3.42;;
78324;SDS011;67584;51.400;6.692;2023-08-24T10:23:50;4.97;;;4.15;;
78324;SDS011;67584;51.400;6.692;2023-08-24T10:28:44;5.22;;;4.20;;
78324;SDS011;67584;51.400;6.692;2023-08-24T10:31:10;4.20;;;3.80;;
78324;SDS011;67584;51.400;6.692;2023-08-24T10:33:36;4.90;;;4.35;;
78324;SDS011;67584;51.400;6.692;2023-08-24T10:36:06;4.32;;;3.92;;
78324;SDS011;67584;51.400;6.692;2023-08-24T10:38:34;4.85;;;4.15;;
78324;SDS011;67584;51.400;6.692;2023-08-24T10:41:05;5.35;;;3.92;;
78324;SDS011;67584;51.400;6.692;2023-08-24T10:43:34;5.63;;;5.13;;
78324;SDS011;67584;51.400;6.692;2023-08-24T10:46:03;5.65;;;4.22;;
78324;SDS011;67584;51.400;6.692;2023-08-24T10:53:46;5.97;;;4.63;;
78324;SDS011;67584;51.400;6.692;2023-08-24T10:56:13;5.53;;;4.50;;
78324;SDS011;67584;51.400;6.692;2023-08-24T10:58:40;6.57;;;5.03;;
78324;SDS011;67584;51.400;6.692;2023-08-24T11:01:06;7.32;;;5.57;;
78324;SDS011;67584;51.400;6.692;2023-08-24T11:03:34;11.05;;;7.18;;
78324;SDS011;67584;51.400;6.692;2023-08-24T11:06:00;8.27;;;5.70;;
78324;SDS011;67584;51.400;6.692;2023-08-24T11:08:45;5.82;;;5.20;;
78324;SDS011;67584;51.400;6.692;2023-08-24T11:11:21;9.70;;;5.25;;
78324;SDS011;67584;51.400;6.692;2023-08-24T11:16:48;6.70;;;5.05;;
78324;SDS011;67584;51.400;6.692;2023-08-24T11:19:14;5.53;;;4.50;;
78324;SDS011;67584;51.400;6.692;2023-08-24T11:21:42;4.70;;;4.20;;
78324;SDS011;67584;51.400;6.692;2023-08-24T11:24:09;5.10;;;4.28;;
78324;SDS011;67584;51.400;6.692;2023-08-24T11:26:39;4.75;;;4.10;;
78324;SDS011;67584;51.400;6.692;2023-08-24T11:29:12;5.70;;;4.18;;
78324;SDS011;67584;51.400;6.692;2023-08-24T11:31:39;6.03;;;4.65;;
78324;SDS011;67584;51.400;6.692;2023-08-24T11:34:05;3.90;;;3.55;;
78324;SDS011;67584;51.400;6.692;2023-08-24T11:36:42;4.85;;;3.72;;
78324;SDS011;67584;51.400;6.692;2023-08-24T11:39:14;7.05;;;4.30;;
78324;SDS011;67584;51.400;6.692;2023-08-24T11:41:42;3.90;;;3.42;;
78324;SDS011;67584;51.400;6.692;2023-08-24T11:44:07;4.95;;;4.30;;
78324;SDS011;67584;51.400;6.692;2023-08-24T11:46:33;8.30;;;4.40;;
78324;SDS011;67584;51.400;6.692;2023-08-24T11:48:59;5.55;;;4.18;;
78324;SDS011;67584;51.400;6.692;2023-08-24T11:51:25;5.72;;;4.40;;
78324;SDS011;67584;51.400;6.692;2023-08-24T11:53:51;8.07;;;4.43;;
78324;SDS011;67584;51.400;6.692;2023-08-24T11:56:17;7.43;;;4.38;;
78324;SDS011;67584;51.400;6.692;2023-08-24T11:58:43;5.00;;;4.30;;
78324;SDS011;67584;51.400;6.692;2023-08-24T12:01:13;4.57;;;4.18;;
78324;SDS011;67584;51.400;6.692;2023-08-24T12:03:39;7.90;;;4.28;;
78324;SDS011;67584;51.400;6.692;2023-08-24T12:06:10;4.90;;;4.40;;
78324;SDS011;67584;51.400;6.692;2023-08-24T12:08:40;7.38;;;4.80;;
78324;SDS011;67584;51.400;6.692;2023-08-24T12:11:14;5.10;;;4.15;;
78324;SDS011;67584;51.400;6.692;2023-08-24T12:13:54;7.97;;;4.60;;
78324;SDS011;67584;51.400;6.692;2023-08-24T12:16:21;5.28;;;4.22;;
78324;SDS011;67584;51.400;6.692;2023-08-24T12:18:52;4.70;;;4.30;;
78324;SDS011;67584;51.400;6.692;2023-08-24T12:21:19;8.43;;;4.28;;
78324;SDS011;67584;51.400;6.692;2023-08-24T12:26:43;7.25;;;5.10;;
78324;SDS011;67584;51.400;6.692;2023-08-24T12:29:09;4.82;;;3.95;;
78324;SDS011;67584;51.400;6.692;2023-08-24T12:31:35;5.97;;;3.97;;
78324;SDS011;67584;51.400;6.692;2023-08-24T12:34:05;8.85;;;5.00;;
78324;SDS011;67584;51.400;6.692;2023-08-24T12:36:35;7.15;;;5.53;;
78324;SDS011;67584;51.400;6.692;2023-08-24T12:41:29;4.97;;;4.00;;
78324;SDS011;67584;51.400;6.692;2023-08-24T12:43:55;6.25;;;4.40;;
78324;SDS011;67584;51.400;6.692;2023-08-24T12:46:21;4.93;;;4.43;;
78324;SDS011;67584;51.400;6.692;2023-08-24T12:48:46;7.95;;;5.13;;
78324;SDS011;67584;51.400;6.692;2023-08-24T12:51:12;5.60;;;4.15;;
78324;SDS011;67584;51.400;6.692;2023-08-24T12:53:38;7.93;;;4.35;;
78324;SDS011;67584;51.400;6.692;2023-08-24T12:56:04;6.05;;;4.25;;
78324;SDS011;67584;51.400;6.692;2023-08-24T12:58:30;12.82;;;5.00;;
78324;SDS011;67584;51.400;6.692;2023-08-24T13:00:56;6.80;;;4.72;;
78324;SDS011;67584;51.400;6.692;2023-08-24T13:03:21;7.75;;;4.32;;
78324;SDS011;67584;51.400;6.692;2023-08-24T13:05:48;7.65;;;4.50;;
78324;SDS011;67584;51.400;6.692;2023-08-24T13:08:13;5.32;;;4.00;;
78324;SDS011;67584;51.400;6.692;2023-08-24T13:10:39;6.68;;;4.53;;
78324;SDS011;67584;51.400;6.692;2023-08-24T13:13:05;6.63;;;4.30;;
78324;SDS011;67584;51.400;6.692;2023-08-24T13:15:31;6.10;;;4.20;;
78324;SDS011;67584;51.400;6.692;2023-08-24T13:17:57;5.32;;;4.03;;
78324;SDS011;67584;51.400;6.692;2023-08-24T13:20:23;4.38;;;3.97;;
78324;SDS011;67584;51.400;6.692;2023-08-24T13:25:16;7.80;;;4.10;;
78324;SDS011;67584;51.400;6.692;2023-08-24T13:27:42;5.60;;;4.03;;
78324;SDS011;67584;51.400;6.692;2023-08-24T13:30:08;4.28;;;3.33;;
78324;SDS011;67584;51.400;6.692;2023-08-24T13:32:34;4.38;;;3.80;;
78324;SDS011;67584;51.400;6.692;2023-08-24T13:35:00;4.00;;;3.25;;
78324;SDS011;67584;51.400;6.692;2023-08-24T13:37:26;6.40;;;3.95;;
78324;SDS011;67584;51.400;6.692;2023-08-24T13:39:52;6.20;;;3.83;;
78324;SDS011;67584;51.400;6.692;2023-08-24T13:42:18;4.57;;;3.97;;
78324;SDS011;67584;51.400;6.692;2023-08-24T13:44:44;5.63;;;4.18;;
78324;SDS011;67584;51.400;6.692;2023-08-24T13:47:11;5.60;;;3.85;;
78324;SDS011;67584;51.400;6.692;2023-08-24T13:49:36;4.90;;;3.55;;
78324;SDS011;67584;51.400;6.692;2023-08-24T13:52:02;5.45;;;3.92;;
78324;SDS011;67584;51.400;6.692;2023-08-24T13:54:28;6.20;;;4.20;;
78324;SDS011;67584;51.400;6.692;2023-08-24T13:56:55;6.63;;;4.32;;
78324;SDS011;67584;51.400;6.692;2023-08-24T13:59:21;6.78;;;4.43;;
78324;SDS011;67584;51.400;6.692;2023-08-24T14:01:47;5.50;;;4.47;;
78324;SDS011;67584;51.400;6.692;2023-08-24T14:04:13;6.20;;;4.00;;
78324;SDS011;67584;51.400;6.692;2023-08-24T14:06:39;6.47;;;4.95;;
78324;SDS011;67584;51.400;6.692;2023-08-24T14:09:04;6.82;;;4.53;;
78324;SDS011;67584;51.400;6.692;2023-08-24T14:11:31;6.85;;;4.40;;
78324;SDS011;67584;51.400;6.692;2023-08-24T14:13:57;7.15;;;4.70;;
78324;SDS011;67584;51.400;6.692;2023-08-24T14:16:24;7.43;;;4.35;;
78324;SDS011;67584;51.400;6.692;2023-08-24T14:18:51;6.18;;;4.85;;
78324;SDS011;67584;51.400;6.692;2023-08-24T14:21:17;5.90;;;4.63;;
78324;SDS011;67584;51.400;6.692;2023-08-24T14:23:43;9.35;;;4.13;;
78324;SDS011;67584;51.400;6.692;2023-08-24T14:26:09;6.78;;;4.78;;
78324;SDS011;67584;51.400;6.692;2023-08-24T14:31:12;5.97;;;4.85;;
78324;SDS011;67584;51.400;6.692;2023-08-24T14:33:38;7.60;;;4.82;;
78324;SDS011;67584;51.400;6.692;2023-08-24T14:36:03;5.97;;;4.75;;
78324;SDS011;67584;51.400;6.692;2023-08-24T14:38:29;5.88;;;4.47;;
78324;SDS011;67584;51.400;6.692;2023-08-24T14:40:55;6.97;;;4.70;;
78324;SDS011;67584;51.400;6.692;2023-08-24T14:43:20;7.20;;;4.93;;
78324;SDS011;67584;51.400;6.692;2023-08-24T14:45:46;5.80;;;5.15;;
78324;SDS011;67584;51.400;6.692;2023-08-24T14:48:12;8.88;;;4.90;;
78324;SDS011;67584;51.400;6.692;2023-08-24T14:50:39;5.97;;;4.65;;
78324;SDS011;67584;51.400;6.692;2023-08-24T14:53:04;9.77;;;4.40;;
78324;SDS011;67584;51.400;6.692;2023-08-24T14:55:31;7.65;;;5.70;;
78324;SDS011;67584;51.400;6.692;2023-08-24T14:57:56;7.63;;;4.25;;
78324;SDS011;67584;51.400;6.692;2023-08-24T15:00:24;7.03;;;4.65;;
78324;SDS011;67584;51.400;6.692;2023-08-24T15:02:50;5.65;;;4.85;;
78324;SDS011;67584;51.400;6.692;2023-08-24T15:05:16;9.38;;;4.75;;
78324;SDS011;67584;51.400;6.692;2023-08-24T15:07:41;6.47;;;4.72;;
78324;SDS011;67584;51.400;6.692;2023-08-24T15:10:07;6.10;;;4.55;;
78324;SDS011;67584;51.400;6.692;2023-08-24T15:12:33;7.45;;;4.13;;
78324;SDS011;67584;51.400;6.692;2023-08-24T15:14:59;6.68;;;4.25;;